Time;durP1;ratioP1;P1;durP2;ratioP2;P2;SDS_P1;SDS_P2;PMS_P1;PMS_P2;Temp;Humidity;BMP_temperature;BMP_pressure;BME280_temperature;BME280_humidity;BME280_pressure;Samples;Min_cycle;Max_cycle;Signal;HPM_P1;HPM_P2
2021/03/07 00:02:19;;;;;;;31.95;4.68;;;;;;;3.94;80.25;100185.84;5084367;28;20066;-69
2021/03/07 00:04:45;;;;;;;33.97;5.70;;;;;;;3.89;80.42;100187.47;5065881;28;20028;-68
2021/03/07 00:07:10;;;;;;;39.28;6.72;;;;;;;3.93;80.41;100185.81;5083258;28;20046;-70
2021/03/07 00:09:35;;;;;;;34.22;7.00;;;;;;;3.83;80.52;100172.81;5083991;28;20024;-67
2021/03/07 00:12:01;;;;;;;34.92;7.53;;;;;;;3.95;80.29;100177.28;5083947;28;20115;-68
2021/03/07 00:14:26;;;;;;;24.80;4.00;;;;;;;3.95;80.21;100168.72;5083867;28;20027;-67
2021/03/07 00:16:51;;;;;;;20.65;4.40;;;;;;;3.89;80.58;100176.31;5083970;28;20037;-66
2021/03/07 00:19:17;;;;;;;39.75;6.50;;;;;;;3.87;80.69;100195.97;5083792;28;20020;-68
2021/03/07 00:21:42;;;;;;;29.33;4.80;;;;;;;3.88;80.80;100154.94;5083436;28;20033;-68
2021/03/07 00:24:08;;;;;;;22.23;4.70;;;;;;;3.85;80.87;100190.81;5083801;28;20021;-69
2021/03/07 00:26:33;;;;;;;25.67;4.13;;;;;;;3.87;81.01;100188.28;5083982;28;20020;-67
2021/03/07 00:28:59;;;;;;;28.90;5.22;;;;;;;3.81;81.14;100161.69;5083935;28;20025;-66
2021/03/07 00:31:25;;;;;;;30.25;5.50;;;;;;;3.86;80.88;100169.44;5083884;28;20020;-66
2021/03/07 00:33:50;;;;;;;30.25;4.38;;;;;;;3.91;80.75;100180.66;5083633;28;20103;-66
2021/03/07 00:36:15;;;;;;;41.45;8.45;;;;;;;3.92;80.54;100158.41;5083155;28;20032;-66
2021/03/07 00:38:41;;;;;;;27.70;6.07;;;;;;;3.90;80.75;100168.66;5083673;28;20021;-67
2021/03/07 00:41:06;;;;;;;27.40;3.92;;;;;;;3.90;80.87;100137.81;5083266;28;20064;-67
2021/03/07 00:43:31;;;;;;;38.67;6.05;;;;;;;3.94;80.66;100165.31;5083847;28;20028;-66
2021/03/07 00:45:57;;;;;;;15.63;3.80;;;;;;;3.90;80.71;100166.06;5083469;28;20025;-68
2021/03/07 00:48:22;;;;;;;18.52;5.15;;;;;;;3.90;80.78;100166.06;5083908;28;20043;-68
2021/03/07 00:50:47;;;;;;;34.88;5.68;;;;;;;3.94;80.60;100159.28;5083240;28;20025;-69
2021/03/07 00:53:13;;;;;;;50.65;10.68;;;;;;;3.91;80.68;100161.81;5083494;28;20012;-67
2021/03/07 00:55:38;;;;;;;33.83;6.07;;;;;;;3.91;80.73;100159.25;5083494;28;20070;-66
2021/03/07 00:58:04;;;;;;;36.83;5.13;;;;;;;3.90;80.74;100163.50;5083484;28;20437;-67
2021/03/07 01:00:30;;;;;;;26.88;6.20;;;;;;;3.90;80.49;100137.81;5083222;28;20025;-70
2021/03/07 01:02:56;;;;;;;30.60;7.63;;;;;;;3.98;80.38;100130.22;5083414;28;20035;-68
2021/03/07 01:05:25;;;;;;;23.55;4.55;;;;;;;4.08;80.20;100144.06;5083217;28;20020;-67
2021/03/07 01:07:51;;;;;;;38.22;5.63;;;;;;;4.11;79.96;100148.38;5083269;28;20038;-67
2021/03/07 01:10:23;;;;;;;26.45;5.25;;;;;;;4.08;80.01;100152.66;5083128;28;20044;-66
2021/03/07 01:12:50;;;;;;;7.22;2.05;;;;;;;4.09;79.86;100150.94;5083140;28;20036;-66
2021/03/07 01:15:18;;;;;;;30.73;5.13;;;;;;;4.18;79.69;100143.38;5083277;28;20235;-67
2021/03/07 01:17:44;;;;;;;8.93;2.30;;;;;;;4.18;79.21;100139.94;5083582;28;20154;-68
2021/03/07 01:20:13;;;;;;;28.30;5.45;;;;;;;4.25;78.90;100161.44;5086150;28;20024;-66
2021/03/07 01:22:38;;;;;;;37.33;5.03;;;;;;;4.26;78.68;100166.59;5087140;28;20035;-67
2021/03/07 01:25:06;;;;;;;11.48;2.53;;;;;;;4.36;78.33;100167.56;5087581;28;20025;-67
2021/03/07 01:27:31;;;;;;;29.23;5.57;;;;;;;4.32;78.01;100146.13;5087035;28;20103;-66
2021/03/07 01:29:57;;;;;;;40.08;7.68;;;;;;;4.41;77.79;100159.94;5086631;28;20058;-67
2021/03/07 01:32:22;;;;;;;22.55;3.38;;;;;;;4.44;77.66;100153.09;5087151;28;20348;-69
2021/03/07 01:34:48;;;;;;;20.25;4.05;;;;;;;4.48;77.54;100146.31;5087175;28;20029;-67
2021/03/07 01:37:13;;;;;;;19.08;3.97;;;;;;;4.45;77.41;100136.00;5086586;28;20023;-67
2021/03/07 01:39:38;;;;;;;16.48;3.00;;;;;;;4.47;77.45;100134.31;5086775;28;20087;-70
2021/03/07 01:42:10;;;;;;;18.67;4.32;;;;;;;4.45;77.45;100118.88;5086631;28;20025;-66
2021/03/07 01:44:37;;;;;;;30.58;7.28;;;;;;;4.50;77.28;100124.06;5086825;28;20051;-66
2021/03/07 01:47:03;;;;;;;28.77;4.93;;;;;;;4.49;77.36;100121.47;5086661;28;20032;-67
2021/03/07 01:49:29;;;;;;;33.50;6.13;;;;;;;4.50;77.46;100123.19;5086634;28;20055;-67
2021/03/07 01:51:55;;;;;;;27.85;4.72;;;;;;;4.55;77.07;100109.53;5086174;28;20020;-67
2021/03/07 01:54:20;;;;;;;31.58;5.90;;;;;;;4.51;77.23;100104.34;5086703;28;20028;-66
2021/03/07 01:56:46;;;;;;;26.13;5.22;;;;;;;4.52;77.10;100121.50;5087146;28;20040;-66
2021/03/07 01:59:13;;;;;;;25.13;4.53;;;;;;;4.47;77.28;100112.00;5086978;28;20464;-66
2021/03/07 02:01:40;;;;;;;40.38;7.40;;;;;;;4.54;77.07;100099.22;5086500;28;20446;-68
2021/03/07 02:04:06;;;;;;;19.58;4.75;;;;;;;4.56;77.16;100113.84;5086796;28;20025;-67
2021/03/07 02:06:31;;;;;;;28.20;4.60;;;;;;;4.55;76.98;100085.56;5086026;28;20025;-67
2021/03/07 02:08:57;;;;;;;23.17;5.15;;;;;;;4.50;77.17;100093.22;5086226;28;20272;-66
2021/03/07 02:11:22;;;;;;;38.08;6.13;;;;;;;4.58;76.80;100101.00;5086130;28;20028;-66
2021/03/07 02:13:48;;;;;;;34.17;7.25;;;;;;;4.57;76.84;100091.56;5086235;28;20548;-65
2021/03/07 02:16:20;;;;;;;37.90;5.07;;;;;;;4.56;76.91;100093.28;5068073;28;20052;-67
2021/03/07 02:18:49;;;;;;;44.67;7.22;;;;;;;4.54;76.87;100100.09;5086076;28;20026;-67
2021/03/07 02:21:39;;;;;;;27.17;6.75;;;;;;;4.63;76.77;100077.91;5085735;28;20076;-68
2021/03/07 02:24:07;;;;;;;38.40;6.35;;;;;;;4.53;77.09;100111.25;5086089;28;20055;-65
2021/03/07 02:26:37;;;;;;;30.92;6.95;;;;;;;4.52;77.28;100101.78;5086232;28;20017;-67
2021/03/07 02:29:04;;;;;;;22.75;5.65;;;;;;;4.58;76.85;100096.72;5085532;28;20053;-66
2021/03/07 02:31:32;;;;;;;38.38;6.28;;;;;;;4.50;76.94;100093.22;5051391;28;20039;-65
2021/03/07 02:34:08;;;;;;;29.25;5.05;;;;;;;4.45;77.27;100082.88;5086203;28;20377;-67
2021/03/07 02:36:45;;;;;;;31.13;6.90;;;;;;;4.41;77.29;100086.25;5085466;28;20036;-65
2021/03/07 02:39:11;;;;;;;32.70;5.43;;;;;;;4.37;77.48;100087.06;5085571;28;20024;-69
2021/03/07 02:41:37;;;;;;;19.10;3.92;;;;;;;4.34;77.70;100087.03;5067593;28;20028;-66
2021/03/07 02:44:06;;;;;;;34.50;6.25;;;;;;;4.31;77.66;100085.25;5085779;28;20043;-66
2021/03/07 02:46:35;;;;;;;37.95;6.45;;;;;;;4.40;77.34;100102.53;5067591;28;20151;-66
2021/03/07 02:49:02;;;;;;;32.28;5.82;;;;;;;4.29;77.86;100091.25;5085665;28;20032;-67
2021/03/07 02:51:31;;;;;;;26.25;5.13;;;;;;;4.27;78.03;100098.94;5085188;28;20039;-65
2021/03/07 02:54:01;;;;;;;26.80;4.55;;;;;;;4.25;78.17;100074.06;5085469;28;20027;-66
2021/03/07 02:56:31;;;;;;;26.05;5.50;;;;;;;4.23;78.17;100084.31;5085769;28;20020;-66
2021/03/07 02:59:04;;;;;;;19.15;4.38;;;;;;;4.24;78.36;100098.03;5085591;28;20021;-66
2021/03/07 03:01:30;;;;;;;24.73;4.75;;;;;;;4.20;78.33;100095.41;5085497;28;20472;-66
2021/03/07 03:03:56;;;;;;;20.67;3.00;;;;;;;4.21;78.32;100089.44;5085528;28;20081;-67
2021/03/07 03:06:23;;;;;;;22.90;4.22;;;;;;;4.23;78.26;100104.88;5084959;28;20012;-67
2021/03/07 03:08:53;;;;;;;28.52;6.22;;;;;;;4.21;78.44;100086.00;5085286;28;20027;-65
2021/03/07 03:11:20;;;;;;;26.33;4.80;;;;;;;4.21;78.25;100094.59;5085203;28;20029;-67
2021/03/07 03:13:49;;;;;;;28.80;4.35;;;;;;;4.29;78.25;100094.69;5085213;28;20029;-66
2021/03/07 03:16:15;;;;;;;25.75;4.82;;;;;;;4.30;78.20;100100.66;5084910;28;20017;-67
2021/03/07 03:18:42;;;;;;;25.60;5.65;;;;;;;4.26;78.25;100080.91;5085076;28;20027;-66
2021/03/07 03:21:11;;;;;;;20.35;4.28;;;;;;;4.32;78.29;100104.13;5084571;28;20021;-67
2021/03/07 03:23:37;;;;;;;35.67;5.40;;;;;;;4.28;78.46;100094.66;5084862;28;20048;-66
2021/03/07 03:26:03;;;;;;;14.02;3.72;;;;;;;4.28;78.37;100099.81;5084625;28;20248;-66
2021/03/07 03:28:29;;;;;;;32.80;6.97;;;;;;;4.28;78.47;100102.38;5085122;28;20084;-67
2021/03/07 03:30:56;;;;;;;26.38;3.85;;;;;;;4.27;78.56;100108.34;5066357;28;20043;-68
2021/03/07 03:33:26;;;;;;;34.55;5.70;;;;;;;4.30;78.63;100119.53;5066552;28;20051;-66
2021/03/07 03:35:51;;;;;;;31.45;5.57;;;;;;;4.31;78.68;100116.09;5084258;28;20641;-66
2021/03/07 03:38:17;;;;;;;33.92;6.18;;;;;;;4.30;78.79;100106.69;5084594;28;20025;-66
2021/03/07 03:40:46;;;;;;;20.85;4.13;;;;;;;4.31;78.81;100107.56;5083759;28;20053;-66
2021/03/07 03:43:12;;;;;;;31.48;5.05;;;;;;;4.37;78.30;100101.59;5084387;28;20112;-66
2021/03/07 03:45:41;;;;;;;25.17;4.47;;;;;;;4.29;78.62;100101.53;5084463;28;20376;-66
2021/03/07 03:48:16;;;;;;;33.85;4.22;;;;;;;4.31;78.48;100102.41;5084440;28;20035;-66
2021/03/07 03:50:44;;;;;;;39.20;6.05;;;;;;;4.27;78.55;100095.50;5083983;28;20043;-66
2021/03/07 03:53:14;;;;;;;30.80;5.57;;;;;;;4.22;78.73;100098.00;5084277;28;20024;-66
2021/03/07 03:55:47;;;;;;;34.15;5.35;;;;;;;4.17;78.72;100094.53;5066118;28;20028;-67
2021/03/07 03:58:14;;;;;;;24.95;5.05;;;;;;;4.16;78.96;100092.78;5084208;28;20036;-66
2021/03/07 04:00:42;;;;;;;34.72;5.97;;;;;;;4.13;78.90;100088.47;5083990;28;20020;-67
2021/03/07 04:03:15;;;;;;;45.33;6.47;;;;;;;4.13;78.99;100106.47;5084144;28;20029;-66
2021/03/07 04:05:46;;;;;;;34.88;5.93;;;;;;;4.13;78.96;100105.59;5065763;28;20416;-67
2021/03/07 04:08:15;;;;;;;35.33;5.70;;;;;;;4.19;78.89;100115.94;5084022;28;20021;-66
2021/03/07 04:10:42;;;;;;;40.75;6.78;;;;;;;4.20;78.80;100115.13;5083954;28;20036;-65
2021/03/07 04:13:10;;;;;;;24.48;5.45;;;;;;;4.20;78.87;100113.41;5083975;28;20029;-66
2021/03/07 04:15:37;;;;;;;42.78;7.07;;;;;;;4.24;78.72;100123.72;5065854;28;20032;-66
2021/03/07 04:18:03;;;;;;;45.50;10.32;;;;;;;4.25;78.66;100122.91;5083734;28;20028;-65
2021/03/07 04:20:29;;;;;;;29.45;5.57;;;;;;;4.28;78.43;100116.06;5083577;28;20059;-65
2021/03/07 04:22:55;;;;;;;42.33;6.57;;;;;;;4.24;78.59;100126.28;5083879;28;20030;-66
2021/03/07 04:25:21;;;;;;;35.40;7.13;;;;;;;4.21;78.60;100125.44;5083741;28;20066;-65
2021/03/07 04:27:47;;;;;;;43.85;8.32;;;;;;;4.24;78.44;100126.28;5083912;28;20046;-66
2021/03/07 04:30:13;;;;;;;47.95;7.93;;;;;;;4.19;78.57;100121.97;5083682;28;20064;-66
2021/03/07 04:32:39;;;;;;;24.77;5.07;;;;;;;4.21;78.44;100132.25;5083705;28;20035;-66
2021/03/07 04:35:05;;;;;;;27.02;5.45;;;;;;;4.20;78.19;100128.81;5083793;28;20020;-66
2021/03/07 04:37:31;;;;;;;37.80;5.57;;;;;;;4.21;78.17;100139.97;5083381;28;20025;-65
2021/03/07 04:39:56;;;;;;;38.13;6.03;;;;;;;4.21;78.02;100148.56;5083314;28;20466;-66
2021/03/07 04:42:22;;;;;;;32.38;5.18;;;;;;;4.19;77.83;100147.66;5083665;28;20036;-66
2021/03/07 04:44:48;;;;;;;37.90;6.50;;;;;;;4.22;77.81;100141.69;5083620;28;20025;-65
2021/03/07 04:47:13;;;;;;;35.17;5.50;;;;;;;4.22;77.76;100151.97;5083600;28;20028;-67
2021/03/07 04:49:39;;;;;;;35.25;8.07;;;;;;;4.26;77.39;100148.63;5083679;28;20031;-67
2021/03/07 04:52:05;;;;;;;29.92;5.55;;;;;;;4.28;77.42;100151.19;5083417;28;20029;-68
2021/03/07 04:54:30;;;;;;;26.92;4.82;;;;;;;4.29;77.12;100150.34;5087886;28;20020;-67
2021/03/07 04:56:56;;;;;;;30.48;4.97;;;;;;;4.32;77.06;100163.25;5069840;28;20039;-67
2021/03/07 04:59:21;;;;;;;20.58;4.72;;;;;;;4.32;76.26;100194.94;5088150;28;20025;-68
2021/03/07 05:01:47;;;;;;;14.68;3.13;;;;;;;4.24;74.60;100186.25;5087605;28;20097;-65
2021/03/07 05:04:12;;;;;;;5.82;1.40;;;;;;;3.89;73.43;100196.88;5087425;28;20110;-66
2021/03/07 05:06:40;;;;;;;5.78;1.20;;;;;;;3.48;72.56;100196.22;5087064;28;20038;-68
2021/03/07 05:09:07;;;;;;;2.72;0.85;;;;;;;3.01;72.18;100215.03;5087360;28;20031;-69
2021/03/07 05:11:33;;;;;;;1.85;0.93;;;;;;;2.69;71.64;100221.22;5087251;28;20031;-67
2021/03/07 05:13:58;;;;;;;1.02;0.68;;;;;;;2.39;71.72;100228.31;5087514;28;20353;-67
2021/03/07 05:16:24;;;;;;;2.97;0.95;;;;;;;2.17;70.95;100227.78;5086973;28;20017;-67
2021/03/07 05:18:49;;;;;;;0.70;0.60;;;;;;;1.98;70.40;100229.94;5087073;28;20042;-67
2021/03/07 05:21:15;;;;;;;2.00;1.10;;;;;;;1.80;70.73;100226.94;5086926;28;20056;-66
2021/03/07 05:23:40;;;;;;;1.80;0.70;;;;;;;1.66;71.25;100236.84;5087328;28;20031;-66
2021/03/07 05:26:06;;;;;;;1.08;0.60;;;;;;;1.57;71.42;100237.44;5087086;28;20021;-66
2021/03/07 05:28:32;;;;;;;0.93;0.60;;;;;;;1.50;71.81;100240.69;5086947;28;20212;-66
2021/03/07 05:30:57;;;;;;;1.35;0.73;;;;;;;1.46;71.94;100239.72;5086766;28;20029;-67
2021/03/07 05:33:23;;;;;;;0.98;0.70;;;;;;;1.45;71.63;100240.56;5069006;28;20025;-65
2021/03/07 05:35:49;;;;;;;1.85;0.70;;;;;;;1.43;71.25;100237.97;5086505;28;20032;-65
2021/03/07 05:38:14;;;;;;;0.82;0.70;;;;;;;1.30;71.63;100243.56;5086907;28;20066;-66
2021/03/07 05:40:40;;;;;;;1.65;0.60;;;;;;;1.27;71.83;100253.72;5086444;28;20105;-67
2021/03/07 05:43:07;;;;;;;0.75;0.52;;;;;;;1.18;71.68;100244.13;5086807;28;20028;-67
2021/03/07 05:45:32;;;;;;;0.98;0.65;;;;;;;1.14;72.00;100255.94;5086818;28;20128;-65
2021/03/07 05:47:58;;;;;;;0.80;0.60;;;;;;;1.14;71.45;100249.97;5068681;28;20021;-66
2021/03/07 05:50:25;;;;;;;2.65;0.63;;;;;;;1.09;71.10;100255.81;5086473;28;20035;-66
2021/03/07 05:52:55;;;;;;;1.90;0.60;;;;;;;1.05;71.32;100265.91;5086363;28;20032;-67
2021/03/07 05:55:29;;;;;;;2.95;1.02;;;;;;;1.01;70.96;100275.19;5086751;28;20021;-67
2021/03/07 05:58:02;;;;;;;2.22;0.60;;;;;;;1.01;70.78;100272.63;5086816;28;20035;-66
2021/03/07 06:00:28;;;;;;;2.53;0.80;;;;;;;0.98;70.69;100277.66;5086295;28;20128;-67
2021/03/07 06:02:54;;;;;;;0.82;0.50;;;;;;;0.97;70.87;100287.03;5086413;28;20058;-66
2021/03/07 06:05:20;;;;;;;0.50;0.50;;;;;;;1.01;70.78;100287.97;5085489;28;20024;-67
2021/03/07 06:07:47;;;;;;;4.40;0.73;;;;;;;1.02;70.77;100289.72;5085943;28;20031;-67
2021/03/07 06:10:17;;;;;;;1.13;0.80;;;;;;;1.04;70.38;100292.31;5086396;28;20020;-66
2021/03/07 06:12:44;;;;;;;1.58;0.70;;;;;;;1.05;69.91;100294.03;5086157;28;20099;-67
2021/03/07 06:15:13;;;;;;;1.80;0.73;;;;;;;1.06;69.79;100296.66;5086218;28;20040;-67
2021/03/07 06:17:43;;;;;;;1.92;0.82;;;;;;;1.08;70.18;100299.25;5086221;28;20032;-67
2021/03/07 06:20:11;;;;;;;3.58;0.60;;;;;;;1.09;69.67;100293.28;5086067;28;20036;-65
2021/03/07 06:22:37;;;;;;;0.82;0.70;;;;;;;1.09;70.00;100306.97;5085716;28;20066;-66
2021/03/07 06:25:06;;;;;;;1.80;0.60;;;;;;;1.07;70.10;100305.19;5086119;28;20431;-66
2021/03/07 06:27:31;;;;;;;2.03;0.70;;;;;;;1.11;69.58;100310.44;5067754;28;20020;-67
2021/03/07 06:30:17;;;;;;;0.98;0.70;;;;;;;1.14;69.72;100303.66;5085846;28;20031;-66
2021/03/07 06:32:51;;;;;;;0.60;0.60;;;;;;;1.15;69.91;100306.25;5086070;28;20025;-67
2021/03/07 06:35:27;;;;;;;3.35;1.17;;;;;;;1.32;69.84;100311.00;5085931;28;20055;-66
2021/03/07 06:37:53;;;;;;;3.90;1.25;;;;;;;1.46;69.61;100317.38;5085615;28;20081;-67
2021/03/07 06:40:36;;;;;;;0.80;0.80;;;;;;;1.58;69.42;100326.22;5085160;28;20044;-65
2021/03/07 06:43:04;;;;;;;2.20;0.70;;;;;;;1.82;69.32;100323.41;5085651;28;20020;-66
2021/03/07 06:45:43;;;;;;;1.02;0.70;;;;;;;2.35;69.78;100326.41;5085601;28;20436;-66
2021/03/07 06:48:10;;;;;;;1.58;0.82;;;;;;;2.95;70.06;100326.94;5085564;28;20040;-66
2021/03/07 06:50:59;;;;;;;3.28;1.23;;;;;;;3.59;69.37;100337.59;5085429;28;20103;-65
2021/03/07 06:53:36;;;;;;;1.20;0.63;;;;;;;4.17;68.66;100343.78;5072419;28;20028;-67
2021/03/07 06:56:02;;;;;;;1.35;0.63;;;;;;;4.79;67.94;100341.28;5085375;28;20374;-67
2021/03/07 06:58:28;;;;;;;0.93;0.50;;;;;;;5.32;66.76;100347.13;5085673;28;20020;-68
2021/03/07 07:00:53;;;;;;;1.58;0.80;;;;;;;6.04;66.85;100358.19;5085135;28;20070;-67
2021/03/07 07:03:19;;;;;;;3.05;0.65;;;;;;;6.63;65.29;100358.72;5085236;28;20044;-68
2021/03/07 07:05:47;;;;;;;1.70;0.60;;;;;;;7.24;64.70;100350.44;5085127;28;20122;-67
2021/03/07 07:08:14;;;;;;;3.90;0.80;;;;;;;7.65;61.10;100347.16;5085173;28;20463;-68
2021/03/07 07:10:56;;;;;;;0.80;0.77;;;;;;;8.08;59.20;100330.00;5084930;28;20024;-68
2021/03/07 07:13:28;;;;;;;2.73;0.70;;;;;;;8.34;57.67;100343.81;5085299;28;20051;-68
2021/03/07 07:16:05;;;;;;;1.08;0.70;;;;;;;8.44;55.37;100350.69;5084975;28;20028;-67
2021/03/07 07:18:39;;;;;;;1.58;0.50;;;;;;;8.56;54.52;100347.28;5084890;28;20029;-69
2021/03/07 07:21:07;;;;;;;1.67;0.70;;;;;;;9.19;55.30;100358.34;5084551;28;20017;-69
2021/03/07 07:23:33;;;;;;;1.42;0.60;;;;;;;9.84;53.61;100351.13;5085030;28;20050;-68
2021/03/07 07:25:59;;;;;;;2.10;0.60;;;;;;;10.09;48.09;100356.16;5084845;28;20033;-69
2021/03/07 07:28:26;;;;;;;1.58;0.90;;;;;;;9.86;46.88;100358.03;5084941;28;20093;-69
2021/03/07 07:31:10;;;;;;;1.80;0.68;;;;;;;9.52;45.92;100371.19;5084586;28;20029;-69
2021/03/07 07:33:55;;;;;;;2.88;0.80;;;;;;;9.44;47.48;100373.78;5084779;28;20040;-67
2021/03/07 07:36:31;;;;;;;2.13;0.80;;;;;;;9.35;45.02;100369.50;5084213;28;20413;-67
2021/03/07 07:38:58;;;;;;;3.10;0.80;;;;;;;9.04;44.69;100372.22;5084579;28;20039;-68
2021/03/07 07:41:35;;;;;;;3.22;0.70;;;;;;;8.81;45.56;100383.47;5084258;28;20480;-67
2021/03/07 07:44:03;;;;;;;1.50;0.63;;;;;;;8.77;44.12;100385.19;5066443;28;20051;-69
2021/03/07 07:46:29;;;;;;;2.50;0.70;;;;;;;8.74;44.62;100374.84;5084290;28;20020;-73
2021/03/07 07:48:54;;;;;;;0.70;0.50;;;;;;;8.80;42.81;100374.00;5084592;28;20108;-71
2021/03/07 07:51:39;;;;;;;1.35;0.55;;;;;;;8.65;43.25;100393.84;5083921;28;20438;-67
2021/03/07 07:54:07;;;;;;;3.05;1.00;;;;;;;8.45;42.04;100404.16;5084422;28;20029;-68
2021/03/07 07:56:43;;;;;;;2.90;0.70;;;;;;;8.14;43.19;100407.59;5084137;28;20016;-65
2021/03/07 07:59:10;;;;;;;1.92;0.60;;;;;;;8.50;44.78;100415.38;5084240;28;20088;-68
2021/03/07 08:01:53;;;;;;;1.13;0.60;;;;;;;8.63;41.83;100412.81;5084030;28;20028;-69
2021/03/07 08:04:27;;;;;;;2.80;0.80;;;;;;;8.84;42.02;100414.53;5084203;28;20108;-70
2021/03/07 08:06:53;;;;;;;1.67;0.60;;;;;;;8.81;40.41;100401.59;5083786;28;20021;-69
2021/03/07 08:09:36;;;;;;;2.63;0.52;;;;;;;8.74;37.96;100412.81;5084337;28;20025;-68
2021/03/07 08:12:39;;;;;;;2.65;0.60;;;;;;;8.41;37.75;100412.78;5083869;28;20035;-68
2021/03/07 08:15:27;;;;;;;0.93;0.60;;;;;;;8.34;37.21;100411.91;5083982;28;20047;-68
2021/03/07 08:17:54;;;;;;;1.17;0.55;;;;;;;8.24;38.27;100407.59;5083802;28;20108;-67
2021/03/07 08:20:38;;;;;;;2.10;0.85;;;;;;;8.40;36.91;100398.97;5083764;28;20027;-67
2021/03/07 08:23:04;;;;;;;2.85;0.70;;;;;;;8.39;36.08;100407.59;5065852;28;20066;-71
2021/03/07 08:25:48;;;;;;;1.65;0.90;;;;;;;8.09;35.08;100401.53;5083827;28;20020;-68
2021/03/07 08:28:25;;;;;;;0.63;0.60;;;;;;;8.04;35.23;100411.00;5083501;28;20067;-67
2021/03/07 08:31:01;;;;;;;1.88;0.70;;;;;;;8.01;34.92;100408.41;5083787;28;20366;-70
2021/03/07 08:33:40;;;;;;;0.85;0.80;;;;;;;8.06;34.81;100405.00;5065874;28;20031;-68
2021/03/07 08:36:16;;;;;;;1.13;0.60;;;;;;;7.83;33.40;100398.91;5083365;28;20020;-69
2021/03/07 08:38:56;;;;;;;5.93;0.82;;;;;;;7.63;34.51;100405.72;5065650;28;20368;-69
2021/03/07 08:41:25;;;;;;;1.75;0.65;;;;;;;7.73;35.29;100413.50;5083344;28;20066;-69
2021/03/07 08:44:00;;;;;;;1.13;0.70;;;;;;;8.00;35.39;100414.44;5065453;28;20021;-68
2021/03/07 08:46:27;;;;;;;2.05;1.02;;;;;;;8.41;34.97;100415.38;5083192;28;20372;-65
2021/03/07 08:49:09;;;;;;;3.83;1.00;;;;;;;8.56;34.78;100417.16;5083259;28;20025;-65
2021/03/07 08:51:36;;;;;;;4.43;0.95;;;;;;;8.97;35.61;100405.03;5065218;28;20188;-68
2021/03/07 08:54:10;;;;;;;2.10;1.02;;;;;;;9.40;34.04;100408.34;5083425;28;20021;-67
2021/03/07 08:56:40;;;;;;;2.58;1.10;;;;;;;9.54;34.22;100396.22;5083268;28;20033;-66
2021/03/07 08:59:07;;;;;;;3.10;0.88;;;;;;;9.73;34.50;100409.09;5083053;28;20036;-72
2021/03/07 09:01:34;;;;;;;3.70;0.80;;;;;;;9.64;31.89;100435.03;5083073;28;20027;-70
2021/03/07 09:04:01;;;;;;;1.65;0.80;;;;;;;8.97;30.31;100389.50;5083167;28;20396;-66
2021/03/07 09:06:38;;;;;;;2.88;0.80;;;;;;;8.37;31.24;100424.00;5082591;28;20028;-65
2021/03/07 09:09:18;;;;;;;2.95;0.80;;;;;;;8.00;31.18;100424.78;5083237;28;20028;-66
2021/03/07 09:11:54;;;;;;;2.67;1.02;;;;;;;7.81;31.74;100419.56;5083018;28;20439;-65
2021/03/07 09:14:35;;;;;;;3.17;0.88;;;;;;;7.59;31.52;100409.13;5083118;28;20033;-65
2021/03/07 09:17:05;;;;;;;1.63;1.08;;;;;;;7.41;31.35;100399.63;5083166;28;20249;-66
2021/03/07 09:19:38;;;;;;;1.50;0.70;;;;;;;7.25;32.14;100414.16;5083406;28;20059;-66
2021/03/07 09:22:11;;;;;;;1.33;0.60;;;;;;;7.18;32.05;100419.28;5082976;28;20029;-66
2021/03/07 09:24:37;;;;;;;2.90;0.90;;;;;;;7.28;32.93;100421.94;5082992;28;20052;-65
2021/03/07 09:27:13;;;;;;;3.25;0.70;;;;;;;7.51;30.91;100411.69;5082845;28;20381;-65
2021/03/07 09:29:52;;;;;;;3.78;0.70;;;;;;;7.24;28.54;100402.97;5082998;28;20020;-65
2021/03/07 09:32:32;;;;;;;1.98;0.80;;;;;;;6.74;29.07;100428.44;5082811;28;20021;-66
2021/03/07 09:34:59;;;;;;;2.28;0.85;;;;;;;6.49;29.29;100427.38;5064816;28;20046;-65
2021/03/07 09:37:26;;;;;;;0.38;0.38;;;;;;;6.43;27.88;100436.81;5082655;28;20044;-64
2021/03/07 09:39:52;;;;;;;3.00;0.90;;;;;;;6.19;27.80;100451.19;5084100;28;20079;-65
2021/03/07 09:42:19;;;;;;;2.53;1.15;;;;;;;6.01;26.84;100415.72;5086530;28;20028;-65
2021/03/07 09:44:45;;;;;;;2.33;0.70;;;;;;;5.86;27.40;100452.53;5086583;28;20028;-65
2021/03/07 09:47:14;;;;;;;1.00;0.60;;;;;;;5.76;28.39;100463.53;5086454;28;20016;-65
2021/03/07 09:49:41;;;;;;;1.67;1.40;;;;;;;5.91;27.87;100437.13;5086374;28;20032;-64
2021/03/07 09:52:08;;;;;;;0.90;0.50;;;;;;;5.99;26.27;100434.63;5086110;28;20070;-65
2021/03/07 09:54:34;;;;;;;3.70;0.60;;;;;;;5.90;26.28;100440.50;5086197;28;20215;-65
2021/03/07 09:57:02;;;;;;;0.52;0.47;;;;;;;5.56;26.28;100436.69;5086332;28;20032;-64
2021/03/07 09:59:32;;;;;;;2.15;0.75;;;;;;;5.78;26.28;100444.66;5086365;28;20031;-64
2021/03/07 10:02:05;;;;;;;1.73;0.70;;;;;;;5.72;26.19;100448.91;5067749;28;20028;-65
2021/03/07 10:04:47;;;;;;;0.50;0.50;;;;;;;5.88;26.23;100483.47;5086118;28;20029;-65
2021/03/07 10:07:18;;;;;;;1.75;0.70;;;;;;;5.86;24.01;100478.28;5067740;28;20025;-63
2021/03/07 10:10:20;;;;;;;4.57;0.73;;;;;;;5.94;23.27;100457.75;5086092;28;20021;-65
2021/03/07 10:12:56;;;;;;;1.85;0.60;;;;;;;6.03;23.64;100475.03;5082516;28;20096;-65
2021/03/07 10:15:29;;;;;;;2.78;1.00;;;;;;;6.54;24.39;100466.97;5086053;28;20081;-65
2021/03/07 10:17:59;;;;;;;2.67;0.60;;;;;;;7.12;23.80;100464.84;5085914;28;20032;-63
2021/03/07 10:20:42;;;;;;;1.05;0.70;;;;;;;7.62;23.03;100465.16;5086176;28;20025;-64
2021/03/07 10:23:12;;;;;;;0.77;0.70;;;;;;;7.66;22.48;100480.69;5067685;28;20036;-64
2021/03/07 10:25:39;;;;;;;4.75;0.80;;;;;;;7.56;22.44;100499.56;5067978;28;20025;-63
2021/03/07 10:28:10;;;;;;;1.10;0.70;;;;;;;7.60;22.01;100483.25;5086188;28;20036;-64
2021/03/07 10:30:44;;;;;;;1.67;0.55;;;;;;;7.76;22.31;100484.19;5085787;28;20034;-64
2021/03/07 10:33:09;;;;;;;0.65;0.60;;;;;;;7.61;22.01;100505.63;5086314;28;20123;-62
2021/03/07 10:35:35;;;;;;;2.10;0.75;;;;;;;7.63;22.51;100498.75;5086552;28;20050;-62
2021/03/07 10:38:01;;;;;;;0.82;0.50;;;;;;;7.83;22.92;100516.06;5085820;28;20516;-63
2021/03/07 10:40:32;;;;;;;1.30;0.70;;;;;;;8.14;22.26;100515.31;5085286;28;20040;-63
2021/03/07 10:43:03;;;;;;;1.63;1.00;;;;;;;8.42;20.78;100513.69;5085641;28;20104;-65
2021/03/07 10:45:29;;;;;;;0.95;0.50;;;;;;;8.55;20.62;100501.66;5085403;28;20025;-64
2021/03/07 10:48:11;;;;;;;1.48;0.70;;;;;;;8.18;20.97;100492.06;5085028;28;20029;-67
2021/03/07 10:50:42;;;;;;;1.50;0.68;;;;;;;7.97;21.11;100517.84;5084989;28;20526;-73
2021/03/07 10:53:07;;;;;;;0.88;0.60;;;;;;;8.29;22.01;100530.03;5066790;28;20064;-70
2021/03/07 10:55:33;;;;;;;3.83;0.82;;;;;;;9.02;22.33;100537.09;5085039;28;20028;-69
2021/03/07 10:57:59;;;;;;;2.42;0.55;;;;;;;9.71;19.82;100508.47;5084844;28;20024;-68
2021/03/07 11:00:24;;;;;;;0.55;0.50;;;;;;;9.60;19.65;100545.66;5085109;28;20021;-71
2021/03/07 11:02:52;;;;;;;1.40;0.65;;;;;;;9.33;19.01;100542.22;5084905;28;20056;-68
2021/03/07 11:05:18;;;;;;;2.63;0.70;;;;;;;8.92;18.97;100523.25;5084728;28;20025;-68
2021/03/07 11:07:44;;;;;;;0.65;0.63;;;;;;;8.71;18.71;100543.09;5066379;28;20120;-68
2021/03/07 11:10:12;;;;;;;3.33;0.80;;;;;;;8.61;19.20;100538.78;5085230;28;20028;-68
2021/03/07 11:12:38;;;;;;;1.00;0.65;;;;;;;8.87;19.44;100541.38;5084682;28;20080;-67
2021/03/07 11:15:05;;;;;;;1.65;0.90;;;;;;;8.98;18.69;100519.84;5084768;28;20067;-71
2021/03/07 11:17:31;;;;;;;3.17;1.15;;;;;;;9.28;18.30;100556.94;5084733;28;20044;-70
2021/03/07 11:19:57;;;;;;;0.85;0.70;;;;;;;9.78;18.85;100551.66;5084765;28;20028;-65
2021/03/07 11:22:22;;;;;;;2.50;0.80;;;;;;;10.24;17.99;100567.94;5084498;28;20025;-64
2021/03/07 11:24:48;;;;;;;6.75;1.00;;;;;;;10.37;17.81;100553.16;5084928;28;20053;-69
2021/03/07 11:27:14;;;;;;;3.20;1.17;;;;;;;10.58;17.70;100561.72;5084621;28;20095;-68
2021/03/07 11:29:39;;;;;;;5.70;1.10;;;;;;;11.11;17.94;100537.97;5084562;28;20016;-64
2021/03/07 11:32:05;;;;;;;3.63;1.55;;;;;;;11.44;17.11;100558.50;5084341;28;20017;-69
2021/03/07 11:34:30;;;;;;;4.25;0.90;;;;;;;11.99;16.67;100551.84;5066461;28;20027;-66
2021/03/07 11:36:56;;;;;;;1.40;0.80;;;;;;;11.99;14.95;100522.34;5084021;28;20072;-65
2021/03/07 11:39:21;;;;;;;4.60;0.80;;;;;;;10.18;15.59;100574.00;5084469;28;20137;-70